KPDT/PDT METAR and TAF weather

Enter ICAO airport designator
Station Type Date Time Source
KPDT METAR 2020/02/25 10:53 UTC NOAA

KPDT 251053Z AUTO 13006KT 10SM CLR M02/M04 A3056 RMK AO2 SLP352 T10171044


Station Type Date Time Source
KPDT Decoded METAR 2020/02/25 10:53 UTC NOAA

PENDLETON MUNICIPAL AIRPORT, OR, United States (KPDT) 45-70N 118-83W 458M
Feb 25, 2020 - 05:53 AM EST / 2020.02.25 1053 UTC
Wind: from the SE (130 degrees) at 7 MPH (6 KT):0
Visibility: 10 mile(s):0
Sky conditions: clear
Temperature: 28.9 F (-1.7 C)
Windchill: 21 F (-6 C):1
Dew Point: 24.1 F (-4.4 C)
Relative Humidity: 81%
Pressure (altimeter): 30.56 in. Hg (1034 hPa)
ob: KPDT 251053Z AUTO 13006KT 10SM CLR M02/M04 A3056 RMK AO2 SLP352 T10171044
cycle: 11

Station Type Date Time Source
KPDT TAF 2020/02/25 12:22 UTC NOAA

TAF KPDT 251120Z 2512/2612 14006KT P6SM SCT250
FM252000 32006KT P6SM SCT150 BKN250
FM260500 14006KT P6SM SCT120 BKN200

Example: see airport list